Island Navigator — ZMQ7781 — position and weather

sailwx.info

Track history (hours):
 
Tides and Currents Weather Stations Pressure Air Temp Water Temp Dewpoint Dewpoint Depression Visibility Wind Speed Wind Dir Waves Ship Positions

Island Navigator

Last reported at 2015-Sep-03 21:10 UTC. Time now 2015-Sep-03 23:31 UTC.
Position S 36°45' E 174°58'.

Length 37 m.

Type: Passenger vessel. MMSI: 512001029.

Date/timePositionNaut miles runAvg speedWind from/ knotsBaromVisibWave heightAir tempDewpointWater temp
2015-Sep-03 21:10S 36°45' E 174°58'610.1
2015-Sep-03 20:33S 36°49' E 174°52'2 0.1
2015-Sep-02 02:32S 36°49' E 174°49'11 9.8
2015-Sep-02 01:28S 36°40' E 174°56'8 0.9
2015-Sep-01 15:34S 36°48' E 174°55'8 0.9
2015-Sep-01 07:19S 36°50' E 174°46'911.1
2015-Sep-01 06:28S 36°47' E 174°57'2 0.2
2015-Aug-31 21:32S 36°46' E 174°58'11 1.1
2015-Aug-31 11:32S 36°50' E 174°45'0 0.0
2015-Aug-31 10:26S 36°50' E 174°45'0 0.0
2015-Aug-30 18:25S 36°50' E 174°45'0 0.0
2015-Aug-30 17:25S 36°50' E 174°45'0 0.0
2015-Aug-30 16:31S 36°50' E 174°45'0 0.0
2015-Aug-30 15:20S 36°50' E 174°45'0 0.0
2015-Aug-30 09:31S 36°50' E 174°45'0 0.0
2015-Aug-30 08:31S 36°50' E 174°45'0 0.0
2015-Aug-30 07:15S 36°50' E 174°45'1010.3
2015-Aug-30 06:17S 36°47' E 174°57'2 0.2
2015-Aug-29 21:06S 36°45' E 174°59'711.9
2015-Aug-29 20:33S 36°49' E 174°53'6 5.9
2015-Aug-29 19:32S 36°50' E 174°45'0 0.0
2015-Aug-29 18:25S 36°50' E 174°45'0 0.0
2015-Aug-29 17:13S 36°50' E 174°45'0 0.0
2015-Aug-29 16:25S 36°50' E 174°45'0 0.0
2015-Aug-29 15:19S 36°50' E 174°45'0 0.0
2015-Aug-29 13:25S 36°50' E 174°45'0 0.0
2015-Aug-29 10:25S 36°50' E 174°45'0 0.0
2015-Aug-29 09:31S 36°50' E 174°45'0 0.0
2015-Aug-29 08:25S 36°50' E 174°45'0 0.0
2015-Aug-29 07:19S 36°50' E 174°45'0 0.0
2015-Aug-29 03:31S 36°50' E 174°45'0 0.0
2015-Aug-28 23:13S 36°50' E 174°45'3 0.2
2015-Aug-28 07:03S 36°50' E 174°49'810.3
2015-Aug-28 06:18S 36°46' E 174°58'4 0.4
2015-Aug-27 20:32S 36°48' E 174°54'7 3.1
2015-Aug-27 18:12S 36°50' E 174°45'0 0.0
2015-Aug-27 17:08S 36°50' E 174°45'0 0.0
2015-Aug-26 14:12S 36°50' E 174°45'0 0.0
2015-Aug-25 11:18S 36°50' E 174°45'3 1.1
2015-Aug-25 08:23S 36°50' E 174°49'910.3
2015-Aug-25 07:32S 36°42' E 174°54'7 0.8
2015-Aug-24 22:32S 36°35' E 174°53'1110.7
2015-Aug-24 21:33S 36°45' E 174°49'  
Track history (hours):
 
Tides and Currents Weather Stations Pressure Air Temp Water Temp Dewpoint Dewpoint Depression Visibility Wind Speed Wind Dir Waves Ship Positions

Island Navigator

Last reported at 2015-Sep-03 21:10 UTC. Time now 2015-Sep-03 23:31 UTC.
Position S 36°45' E 174°58'.

Length 37 m.

Type: Passenger vessel. MMSI: 512001029.

Date/timePositionNaut miles runAvg speedWind from/ knotsBaromVisibWave heightAir tempDewpointWater temp
2015-Sep-03 21:10S 36°45' E 174°58'610.1
2015-Sep-03 20:33S 36°49' E 174°52'2 0.1
2015-Sep-02 02:32S 36°49' E 174°49'11 9.8
2015-Sep-02 01:28S 36°40' E 174°56'8 0.9
2015-Sep-01 15:34S 36°48' E 174°55'8 0.9
2015-Sep-01 07:19S 36°50' E 174°46'911.1
2015-Sep-01 06:28S 36°47' E 174°57'2 0.2
2015-Aug-31 21:32S 36°46' E 174°58'11 1.1
2015-Aug-31 11:32S 36°50' E 174°45'0 0.0
2015-Aug-31 10:26S 36°50' E 174°45'0 0.0
2015-Aug-30 18:25S 36°50' E 174°45'0 0.0
2015-Aug-30 17:25S 36°50' E 174°45'0 0.0
2015-Aug-30 16:31S 36°50' E 174°45'0 0.0
2015-Aug-30 15:20S 36°50' E 174°45'0 0.0
2015-Aug-30 09:31S 36°50' E 174°45'0 0.0
2015-Aug-30 08:31S 36°50' E 174°45'0 0.0
2015-Aug-30 07:15S 36°50' E 174°45'1010.3
2015-Aug-30 06:17S 36°47' E 174°57'2 0.2
2015-Aug-29 21:06S 36°45' E 174°59'711.9
2015-Aug-29 20:33S 36°49' E 174°53'6 5.9
2015-Aug-29 19:32S 36°50' E 174°45'0 0.0
2015-Aug-29 18:25S 36°50' E 174°45'0 0.0
2015-Aug-29 17:13S 36°50' E 174°45'0 0.0
2015-Aug-29 16:25S 36°50' E 174°45'0 0.0
2015-Aug-29 15:19S 36°50' E 174°45'0 0.0
2015-Aug-29 13:25S 36°50' E 174°45'0 0.0
2015-Aug-29 10:25S 36°50' E 174°45'0 0.0
2015-Aug-29 09:31S 36°50' E 174°45'0 0.0
2015-Aug-29 08:25S 36°50' E 174°45'0 0.0
2015-Aug-29 07:19S 36°50' E 174°45'0 0.0
2015-Aug-29 03:31S 36°50' E 174°45'0 0.0
2015-Aug-28 23:13S 36°50' E 174°45'3 0.2
2015-Aug-28 07:03S 36°50' E 174°49'810.3
2015-Aug-28 06:18S 36°46' E 174°58'4 0.4
2015-Aug-27 20:32S 36°48' E 174°54'7 3.1
2015-Aug-27 18:12S 36°50' E 174°45'0 0.0
2015-Aug-27 17:08S 36°50' E 174°45'0 0.0
2015-Aug-26 14:12S 36°50' E 174°45'0 0.0
2015-Aug-25 11:18S 36°50' E 174°45'3 1.1
2015-Aug-25 08:23S 36°50' E 174°49'910.3
2015-Aug-25 07:32S 36°42' E 174°54'7 0.8
2015-Aug-24 22:32S 36°35' E 174°53'1110.7
2015-Aug-24 21:33S 36°45' E 174°49'  

Dump ship's entire track history